Time;durP1;ratioP1;P1;durP2;ratioP2;P2;SDS_P1;SDS_P2;PMS_P1;PMS_P2;Temp;Humidity;BMP_temperature;BMP_pressure;BME280_temperature;BME280_humidity;BME280_pressure;Samples;Min_cycle;Max_cycle;Signal;HPM_P1;HPM_P2
2022/05/26 00:00:15;;;;;;;;;;;;;;;14.22;100.00;101573.34;2614257;36;20462;-58
2022/05/26 00:02:43;;;;;;;;;;;;;;;14.26;100.00;101580.19;2614050;36;19951;-58
2022/05/26 00:05:11;;;;;;;;;;;;;;;14.36;100.00;101577.47;2614293;31;20439;-62
2022/05/26 00:07:42;;;;;;;;;;;;;;;14.32;100.00;101579.59;2613856;36;20041;-59
2022/05/26 00:10:10;;;;;;;;;;;;;;;14.31;100.00;101586.03;2614740;36;20029;-63
2022/05/26 00:12:38;;;;;;;;;;;;;;;14.33;100.00;101584.03;2612966;36;20467;-59
2022/05/26 00:15:07;;;;;;;;;;;;;;;14.41;100.00;101594.13;2614783;36;20089;-59
2022/05/26 00:17:35;;;;;;;;;;;;;;;14.43;100.00;101586.75;2613502;36;19954;-64
2022/05/26 00:20:04;;;;;;;;;;;;;;;14.40;100.00;101586.16;2613859;36;19954;-58
2022/05/26 00:22:32;;;;;;;;;;;;;;;14.44;100.00;101591.19;2613683;36;20037;-56
2022/05/26 00:25:03;;;;;;;;;;;;;;;14.45;100.00;101592.00;2614879;36;20094;-58
2022/05/26 00:27:37;;;;;;;;;;;;;;;14.36;100.00;101588.31;2614872;31;20110;-58
2022/05/26 00:30:06;;;;;;;;;;;;;;;14.40;100.00;101591.56;2613547;36;20042;-59
2022/05/26 00:32:34;;;;;;;;;;;;;;;14.40;100.00;101589.75;2613949;36;20036;-59
2022/05/26 00:35:02;;;;;;;;;;;;;;;14.43;100.00;101594.00;2614389;36;19962;-63
2022/05/26 00:37:30;;;;;;;;;;;;;;;14.51;100.00;101596.84;2613578;36;20042;-59
2022/05/26 00:40:00;;;;;;;;;;;;;;;14.46;100.00;101594.59;2614078;36;19947;-60
2022/05/26 00:42:31;;;;;;;;;;;;;;;14.50;100.00;101600.56;2614124;36;19954;-59
2022/05/26 00:44:59;;;;;;;;;;;;;;;14.48;100.00;101597.16;2614293;36;20508;-63
2022/05/26 00:47:30;;;;;;;;;;;;;;;14.45;100.00;101603.69;2614553;36;20433;-63
2022/05/26 00:50:00;;;;;;;;;;;;;;;14.44;100.00;101596.59;2614196;36;19950;-60
2022/05/26 00:52:31;;;;;;;;;;;;;;;14.41;100.00;101594.13;2613455;36;19986;-59
2022/05/26 00:55:02;;;;;;;;;;;;;;;14.35;100.00;101598.31;2614461;36;20030;-60
2022/05/26 00:57:36;;;;;;;;;;;;;;;14.35;100.00;101602.84;2614074;36;20038;-66
2022/05/26 01:00:06;;;;;;;;;;;;;;;14.42;100.00;101598.56;2613622;31;19946;-58
2022/05/26 01:02:37;;;;;;;;;;;;;;;14.47;100.00;101600.84;2614154;36;20523;-59
2022/05/26 01:05:10;;;;;;;;;;;;;;;14.44;100.00;101601.13;2614049;36;20043;-59
2022/05/26 01:07:39;;;;;;;;;;;;;;;14.39;100.00;101604.28;2612932;36;20336;-60
2022/05/26 01:10:08;;;;;;;;;;;;;;;14.36;100.00;101605.41;2613405;36;19951;-59
2022/05/26 01:12:39;;;;;;;;;;;;;;;14.49;100.00;101612.41;2613356;36;20026;-59
2022/05/26 01:15:09;;;;;;;;;;;;;;;14.48;100.00;101614.25;2614210;36;19957;-60
2022/05/26 01:17:43;;;;;;;;;;;;;;;14.50;100.00;101614.09;2613664;36;20464;-63
2022/05/26 01:20:26;;;;;;;;;;;;;;;14.50;100.00;101620.38;2614131;36;20399;-59
2022/05/26 01:23:11;;;;;;;;;;;;;;;14.47;100.00;101627.94;2614297;36;20416;-65
2022/05/26 01:25:52;;;;;;;;;;;;;;;14.48;100.00;101626.94;2614537;36;20030;-60
2022/05/26 01:28:31;;;;;;;;;;;;;;;14.39;100.00;101625.94;2613754;31;20081;-59
2022/05/26 01:31:12;;;;;;;;;;;;;;;14.50;100.00;101628.50;2613429;36;20030;-58
2022/05/26 01:33:45;;;;;;;;;;;;;;;14.43;100.00;101626.50;2614012;31;20046;-59
2022/05/26 01:36:16;;;;;;;;;;;;;;;14.46;100.00;101628.94;2614080;36;20002;-58
2022/05/26 01:38:50;;;;;;;;;;;;;;;14.37;100.00;101628.78;2613673;31;20086;-58
2022/05/26 01:41:23;;;;;;;;;;;;;;;14.43;100.00;101629.19;2613627;36;20029;-58
2022/05/26 01:43:57;;;;;;;;;;;;;;;14.41;100.00;101625.78;2613975;36;19951;-59
2022/05/26 01:46:31;;;;;;;;;;;;;;;14.39;100.00;101625.94;2614716;36;20499;-59
2022/05/26 01:49:02;;;;;;;;;;;;;;;14.43;100.00;101640.03;2613837;31;19951;-57
2022/05/26 01:51:34;;;;;;;;;;;;;;;14.42;100.00;101630.22;2614411;36;20488;-59
2022/05/26 01:54:08;;;;;;;;;;;;;;;14.50;100.00;101643.88;2613984;36;20114;-59
2022/05/26 01:56:41;;;;;;;;;;;;;;;14.52;100.00;101644.63;2613948;36;20105;-59
2022/05/26 01:59:11;;;;;;;;;;;;;;;14.43;100.00;101640.03;2613971;36;20079;-59
2022/05/26 02:01:43;;;;;;;;;;;;;;;14.45;100.00;101646.19;2613988;36;20038;-59
2022/05/26 02:04:16;;;;;;;;;;;;;;;14.50;100.00;101644.75;2613813;36;20053;-59
2022/05/26 02:06:48;;;;;;;;;;;;;;;14.47;100.00;101644.19;2614292;36;19957;-59
2022/05/26 02:09:18;;;;;;;;;;;;;;;14.46;100.00;101648.75;2613350;36;19950;-59
2022/05/26 02:11:48;;;;;;;;;;;;;;;14.48;100.00;101657.56;2613233;36;19998;-62
2022/05/26 02:14:17;;;;;;;;;;;;;;;14.42;100.00;101646.47;2614359;31;19993;-59
2022/05/26 02:16:50;;;;;;;;;;;;;;;14.48;100.00;101652.16;2614368;36;20030;-60
2022/05/26 02:19:21;;;;;;;;;;;;;;;14.45;100.00;101648.91;2613992;36;19958;-63
2022/05/26 02:21:52;;;;;;;;;;;;;;;14.43;100.00;101664.41;2614257;36;19977;-59
2022/05/26 02:24:23;;;;;;;;;;;;;;;14.51;100.00;101659.16;2613584;36;20033;-59
2022/05/26 02:26:52;;;;;;;;;;;;;;;14.47;100.00;101655.88;2614345;31;20387;-62
2022/05/26 02:32:12;;;;;;;;;;;;;;;14.50;100.00;101669.16;2613707;36;19951;-59
2022/05/26 02:34:42;;;;;;;;;;;;;;;14.47;100.00;101676.69;2613901;31;20001;-59
2022/05/26 02:37:10;;;;;;;;;;;;;;;14.47;100.00;101672.13;2614172;36;20030;-61
2022/05/26 02:39:38;;;;;;;;;;;;;;;14.51;100.00;101680.81;2612873;36;20309;-59
2022/05/26 02:42:07;;;;;;;;;;;;;;;14.50;100.00;101681.81;2613840;36;20389;-64
2022/05/26 02:44:36;;;;;;;;;;;;;;;14.47;100.00;101684.81;2614027;36;20034;-61
2022/05/26 02:47:19;;;;;;;;;;;;;;;14.45;100.00;101678.69;2613608;36;20590;-61
2022/05/26 02:50:03;;;;;;;;;;;;;;;14.46;100.00;101680.41;2612813;36;19974;-59
2022/05/26 02:52:34;;;;;;;;;;;;;;;14.41;100.00;101677.25;2613345;36;19951;-60
2022/05/26 02:55:09;;;;;;;;;;;;;;;14.41;100.00;101688.94;2614028;36;20071;-61
2022/05/26 02:57:40;;;;;;;;;;;;;;;14.34;100.00;101687.81;2613916;36;20558;-59
2022/05/26 03:00:09;;;;;;;;;;;;;;;14.30;100.00;101687.22;2612695;36;20046;-63
2022/05/26 03:02:42;;;;;;;;;;;;;;;14.36;100.00;101693.94;2613666;31;19947;-63
2022/05/26 03:05:14;;;;;;;;;;;;;;;14.28;100.00;101694.63;2614231;36;20471;-59
2022/05/26 03:07:44;;;;;;;;;;;;;;;14.27;100.00;101692.91;2613722;36;20430;-59
2022/05/26 03:10:12;;;;;;;;;;;;;;;14.28;100.00;101694.63;2613901;31;19946;-59
2022/05/26 03:12:41;;;;;;;;;;;;;;;14.39;100.00;101695.50;2613928;36;19946;-64
2022/05/26 03:15:09;;;;;;;;;;;;;;;14.31;100.00;101694.34;2613250;36;20073;-62
2022/05/26 03:17:38;;;;;;;;;;;;;;;14.40;100.00;101694.50;2613681;36;20824;-61
2022/05/26 03:20:09;;;;;;;;;;;;;;;14.41;100.00;101694.34;2613330;36;20074;-58
2022/05/26 03:22:38;;;;;;;;;;;;;;;14.36;100.00;101691.22;2613914;36;20507;-59
2022/05/26 03:25:06;;;;;;;;;;;;;;;14.35;100.00;101703.91;2613859;36;19958;-62
2022/05/26 03:27:34;;;;;;;;;;;;;;;14.36;100.00;101694.78;2613760;36;19988;-60
2022/05/26 03:30:02;;;;;;;;;;;;;;;14.44;100.00;101704.94;2613030;36;19954;-60
2022/05/26 03:32:30;;;;;;;;;;;;;;;14.46;100.00;101707.50;2614237;36;20129;-63
2022/05/26 03:43:02;;;;;;;;;;;;;;;14.30;100.00;101703.47;2613820;31;19953;-64
2022/05/26 03:45:33;;;;;;;;;;;;;;;14.26;100.00;101701.19;2612770;31;19981;-59
2022/05/26 03:48:01;;;;;;;;;;;;;;;14.32;100.00;101703.31;2613206;36;19950;-62
2022/05/26 03:50:29;;;;;;;;;;;;;;;14.35;100.00;101712.03;2613463;36;20065;-62
2022/05/26 03:52:59;;;;;;;;;;;;;;;14.33;100.00;101716.72;2613489;36;19957;-61
2022/05/26 03:55:28;;;;;;;;;;;;;;;14.28;100.00;101728.97;2615268;31;20460;-61
2022/05/26 03:57:58;;;;;;;;;;;;;;;14.32;100.00;101723.13;2613880;36;19946;-62
2022/05/26 04:00:27;;;;;;;;;;;;;;;14.39;100.00;101733.44;2613921;36;20424;-62
2022/05/26 04:02:55;;;;;;;;;;;;;;;14.26;100.00;101718.28;2614370;36;20038;-59
2022/05/26 04:05:23;;;;;;;;;;;;;;;14.34;100.00;101728.44;2614845;31;20038;-61
2022/05/26 04:07:51;;;;;;;;;;;;;;;14.29;100.00;101734.25;2613977;36;20119;-59
2022/05/26 04:10:22;;;;;;;;;;;;;;;14.25;100.00;101738.25;2613821;36;20093;-59
2022/05/26 04:12:50;;;;;;;;;;;;;;;14.26;100.00;101739.94;2593205;36;19958;-65
2022/05/26 04:15:20;;;;;;;;;;;;;;;14.26;100.00;101741.81;2614453;31;20030;-61
2022/05/26 04:17:48;;;;;;;;;;;;;;;14.34;100.00;101740.09;2614398;31;20329;-65
2022/05/26 04:20:18;;;;;;;;;;;;;;;14.37;100.00;101742.53;2613934;36;20089;-59
2022/05/26 04:22:46;;;;;;;;;;;;;;;14.40;100.00;101741.41;2613749;31;20507;-63
2022/05/26 04:25:15;;;;;;;;;;;;;;;14.45;100.00;101746.41;2614604;36;20038;-59
2022/05/26 04:27:46;;;;;;;;;;;;;;;14.50;100.00;101746.81;2614119;36;19947;-63
2022/05/26 04:30:14;;;;;;;;;;;;;;;14.42;100.00;101760.22;2611116;36;20067;-61
2022/05/26 04:32:43;;;;;;;;;;;;;;;14.37;100.00;101758.78;2610373;36;19981;-59
2022/05/26 04:35:11;;;;;;;;;;;;;;;14.42;100.00;101760.22;2611508;36;20054;-62
2022/05/26 04:37:40;;;;;;;;;;;;;;;14.46;100.00;101756.25;2613753;36;19946;-59
2022/05/26 04:40:09;;;;;;;;;;;;;;;14.42;100.00;101765.66;2614276;36;20474;-58
2022/05/26 04:42:38;;;;;;;;;;;;;;;14.52;100.00;101766.53;2613178;31;19969;-59
2022/05/26 04:45:10;;;;;;;;;;;;;;;14.51;100.00;101772.94;2614056;36;19954;-59
2022/05/26 04:47:39;;;;;;;;;;;;;;;14.47;100.00;101777.78;2614302;31;19954;-61
2022/05/26 04:50:08;;;;;;;;;;;;;;;14.47;100.00;101779.59;2614432;36;20546;-59
2022/05/26 04:52:36;;;;;;;;;;;;;;;14.48;100.00;101782.19;2614052;36;19973;-59
2022/05/26 04:55:05;;;;;;;;;;;;;;;14.50;100.00;101779.31;2614037;31;19946;-60
2022/05/26 04:57:33;;;;;;;;;;;;;;;14.58;100.00;101789.50;2613906;36;19951;-62
2022/05/26 05:00:01;;;;;;;;;;;;;;;14.55;100.00;101777.06;2613804;36;20034;-61
2022/05/26 05:02:32;;;;;;;;;;;;;;;14.63;100.00;101785.38;2613928;36;20444;-59
2022/05/26 05:05:02;;;;;;;;;;;;;;;14.67;100.00;101780.53;2613467;36;20459;-59
2022/05/26 05:07:30;;;;;;;;;;;;;;;14.66;100.00;101785.13;2613471;36;20473;-63
2022/05/26 05:09:58;;;;;;;;;;;;;;;14.71;100.00;101785.53;2615356;31;20352;-61
2022/05/26 05:12:28;;;;;;;;;;;;;;;14.82;100.00;101786.41;2614195;36;20042;-59
2022/05/26 05:14:57;;;;;;;;;;;;;;;14.98;100.00;101789.41;2614097;31;20078;-64
2022/05/26 05:17:26;;;;;;;;;;;;;;;14.91;100.00;101792.84;2613912;36;20074;-60
2022/05/26 05:19:56;;;;;;;;;;;;;;;14.95;100.00;101792.41;2613917;36;20512;-66
2022/05/26 05:22:27;;;;;;;;;;;;;;;15.21;100.00;101792.69;2613741;36;19946;-66
2022/05/26 05:24:57;;;;;;;;;;;;;;;15.22;100.00;101796.25;2614538;36;20033;-63
2022/05/26 05:27:27;;;;;;;;;;;;;;;15.23;100.00;101797.97;2614428;36;20424;-65
2022/05/26 05:29:57;;;;;;;;;;;;;;;15.28;100.00;101809.22;2613920;36;20037;-59
2022/05/26 05:32:28;;;;;;;;;;;;;;;15.15;100.00;101805.97;2606490;36;20075;-60
2022/05/26 05:35:02;;;;;;;;;;;;;;;15.01;100.00;101809.97;2614198;36;20041;-61
2022/05/26 05:37:32;;;;;;;;;;;;;;;15.04;100.00;101815.94;2613651;36;19951;-60
2022/05/26 05:40:01;;;;;;;;;;;;;;;15.26;100.00;101819.38;2613883;36;20075;-63
2022/05/26 05:42:29;;;;;;;;;;;;;;;15.31;100.00;101825.25;2614311;31;20049;-59
2022/05/26 05:44:57;;;;;;;;;;;;;;;15.27;100.00;101815.69;2614275;36;20510;-62
2022/05/26 05:47:28;;;;;;;;;;;;;;;15.40;100.00;101821.66;2614751;36;20363;-62
2022/05/26 05:49:59;;;;;;;;;;;;;;;15.28;100.00;101820.06;2613773;36;19950;-61
2022/05/26 05:52:27;;;;;;;;;;;;;;;15.40;100.00;101829.81;2613550;31;20103;-63
2022/05/26 05:54:57;;;;;;;;;;;;;;;15.42;100.00;101830.50;2613855;36;20033;-60
2022/05/26 05:57:25;;;;;;;;;;;;;;;15.14;100.00;101824.09;2613965;36;19946;-59
2022/05/26 05:59:53;;;;;;;;;;;;;;;15.40;100.00;101832.50;2613882;36;20034;-62
2022/05/26 06:02:21;;;;;;;;;;;;;;;15.54;100.00;101831.19;2612981;36;19954;-60
2022/05/26 06:04:49;;;;;;;;;;;;;;;15.75;100.00;101833.75;2613816;36;19954;-60
2022/05/26 06:07:22;;;;;;;;;;;;;;;15.94;100.00;101840.16;2612186;36;20532;-59
2022/05/26 06:09:51;;;;;;;;;;;;;;;15.98;100.00;101847.00;2613394;31;19947;-59
2022/05/26 06:12:19;;;;;;;;;;;;;;;15.87;100.00;101847.16;2613638;36;20906;-63
2022/05/26 06:14:47;;;;;;;;;;;;;;;15.90;100.00;101849.59;2613894;36;20093;-59
2022/05/26 06:17:15;;;;;;;;;;;;;;;15.87;100.00;101853.47;2613390;36;20287;-59
2022/05/26 06:19:44;;;;;;;;;;;;;;;15.92;100.00;101853.03;2613977;36;19947;-64
2022/05/26 06:22:14;;;;;;;;;;;;;;;16.13;100.00;101849.25;2613335;36;20733;-59
2022/05/26 06:24:45;;;;;;;;;;;;;;;16.34;100.00;101857.16;2613795;36;20054;-59
2022/05/26 06:29:56;;;;;;;;;;;;;;;16.24;100.00;101858.06;2614003;36;19954;-60
2022/05/26 06:37:46;;;;;;;;;;;;;;;16.28;100.00;101866.75;2613236;32;19973;-60
2022/05/26 06:40:17;;;;;;;;;;;;;;;16.35;100.00;101867.03;2613825;36;20057;-60
2022/05/26 06:42:46;;;;;;;;;;;;;;;16.37;100.00;101867.72;2614141;36;19946;-60
2022/05/26 06:45:14;;;;;;;;;;;;;;;16.61;100.00;101868.03;2613783;36;19946;-60
2022/05/26 06:47:42;;;;;;;;;;;;;;;16.50;100.00;101868.22;2614269;36;20546;-64
2022/05/26 06:50:11;;;;;;;;;;;;;;;16.54;100.00;101874.25;2613926;36;20005;-61
2022/05/26 06:52:39;;;;;;;;;;;;;;;16.64;100.00;101883.19;2613419;36;20026;-59
2022/05/26 06:55:08;;;;;;;;;;;;;;;16.64;100.00;101886.75;2613432;36;20032;-60
2022/05/26 06:57:39;;;;;;;;;;;;;;;16.58;100.00;101878.38;2613735;36;20070;-65
2022/05/26 07:00:08;;;;;;;;;;;;;;;16.53;100.00;101883.41;2613272;36;19950;-59
2022/05/26 07:02:38;;;;;;;;;;;;;;;16.68;100.00;101891.91;2613302;36;20045;-60
2022/05/26 07:05:07;;;;;;;;;;;;;;;16.96;100.00;101890.03;2612750;36;19947;-62
2022/05/26 07:07:35;;;;;;;;;;;;;;;16.58;100.00;101894.69;2612328;31;19951;-60
2022/05/26 07:10:04;;;;;;;;;;;;;;;16.74;100.00;101903.03;2614166;31;20379;-63
2022/05/26 07:12:32;;;;;;;;;;;;;;;16.87;100.00;101902.72;2613540;36;20102;-62
2022/05/26 07:15:03;;;;;;;;;;;;;;;16.70;100.00;101901.63;2614610;31;20421;-59
2022/05/26 07:17:32;;;;;;;;;;;;;;;16.86;100.00;101905.53;2613923;36;20353;-62
2022/05/26 07:20:00;;;;;;;;;;;;;;;16.99;100.00;101900.66;2612531;36;20117;-60
2022/05/26 07:22:28;;;;;;;;;;;;;;;17.08;100.00;101913.31;2612073;36;20058;-62
2022/05/26 07:24:56;;;;;;;;;;;;;;;17.13;100.00;101899.25;2612937;36;19950;-59
2022/05/26 07:27:24;;;;;;;;;;;;;;;17.04;100.00;101901.03;2612375;36;19958;-60
2022/05/26 07:29:53;;;;;;;;;;;;;;;17.29;100.00;101896.69;2613407;36;20034;-60
2022/05/26 07:32:24;;;;;;;;;;;;;;;17.32;100.00;101906.41;2612924;36;19950;-60
2022/05/26 07:34:52;;;;;;;;;;;;;;;17.05;100.00;101905.47;2612162;31;20134;-60
2022/05/26 07:42:42;;;;;;;;;;;;;;;18.21;100.00;101910.91;2612252;36;19950;-63
2022/05/26 07:45:10;;;;;;;;;;;;;;;18.42;100.00;101915.13;2612018;36;20086;-60
2022/05/26 07:47:41;;;;;;;;;;;;;;;18.87;100.00;101916.72;2614021;36;19969;-58
2022/05/26 07:50:11;;;;;;;;;;;;;;;18.69;100.00;101919.50;2612965;31;20543;-61
2022/05/26 07:52:39;;;;;;;;;;;;;;;18.51;100.00;101919.59;2613381;36;19997;-64
2022/05/26 07:55:08;;;;;;;;;;;;;;;18.30;100.00;101917.25;2613081;36;20029;-60
2022/05/26 07:57:36;;;;;;;;;;;;;;;18.18;100.00;101913.09;2613078;36;19946;-60
2022/05/26 08:00:04;;;;;;;;;;;;;;;18.00;100.00;101910.41;2612960;36;20042;-59
2022/05/26 08:02:32;;;;;;;;;;;;;;;17.86;100.00;101904.50;2613980;36;19954;-60
2022/05/26 08:05:02;;;;;;;;;;;;;;;18.16;100.00;101901.50;2613152;36;20066;-65
2022/05/26 08:07:30;;;;;;;;;;;;;;;18.36;100.00;101903.00;2612070;36;20058;-64
2022/05/26 08:09:58;;;;;;;;;;;;;;;18.34;100.00;101906.88;2613539;36;20083;-64
2022/05/26 08:12:26;;;;;;;;;;;;;;;18.76;100.00;101900.63;2613433;31;20402;-60
2022/05/26 08:14:54;;;;;;;;;;;;;;;18.46;100.00;101913.78;2613940;36;20067;-60
2022/05/26 08:17:24;;;;;;;;;;;;;;;18.86;100.00;101905.94;2613609;31;20058;-60
2022/05/26 08:19:52;;;;;;;;;;;;;;;19.16;100.00;101909.13;2613074;36;19946;-60
2022/05/26 08:22:22;;;;;;;;;;;;;;;19.32;100.00;101911.03;2613034;36;20061;-64
2022/05/26 08:24:53;;;;;;;;;;;;;;;19.53;100.00;101913.25;2614456;36;20317;-57
2022/05/26 08:27:22;;;;;;;;;;;;;;;19.27;100.00;101916.97;2613059;36;20058;-60
2022/05/26 08:29:51;;;;;;;;;;;;;;;19.79;100.00;101921.34;2613032;36;20106;-64
2022/05/26 08:32:20;;;;;;;;;;;;;;;18.83;100.00;101923.50;2613044;36;19947;-60
2022/05/26 08:34:48;;;;;;;;;;;;;;;18.47;100.00;101911.91;2613432;36;20502;-62
2022/05/26 08:37:16;;;;;;;;;;;;;;;18.93;100.00;101933.44;2611733;36;20041;-62
2022/05/26 08:39:47;;;;;;;;;;;;;;;18.59;100.00;101937.00;2611999;36;19977;-59
2022/05/26 08:42:19;;;;;;;;;;;;;;;19.14;100.00;101936.56;2612675;36;20427;-64
2022/05/26 08:44:47;;;;;;;;;;;;;;;19.46;100.00;101940.38;2614469;31;20077;-60
2022/05/26 08:47:17;;;;;;;;;;;;;;;19.75;100.00;101933.59;2615419;31;20452;-59
2022/05/26 08:49:48;;;;;;;;;;;;;;;19.35;100.00;101936.09;2613895;36;20046;-62
2022/05/26 08:52:18;;;;;;;;;;;;;;;18.67;100.00;101937.91;2613887;36;20512;-59
2022/05/26 08:54:52;;;;;;;;;;;;;;;18.63;100.00;101939.25;2613284;36;19953;-59
2022/05/26 08:57:23;;;;;;;;;;;;;;;18.46;100.00;101938.31;2611942;36;22107;-59
2022/05/26 08:59:51;;;;;;;;;;;;;;;18.86;100.00;101939.56;2613063;36;19958;-60
2022/05/26 09:02:24;;;;;;;;;;;;;;;19.06;100.00;101939.28;2613382;36;19954;-65
2022/05/26 09:04:52;;;;;;;;;;;;;;;19.69;100.00;101937.84;2613164;36;20071;-59
2022/05/26 09:13:02;;;;;;;;;;;;;;;20.43;100.00;101936.94;2629313;36;19959;-59
2022/05/26 09:15:31;;;;;;;;;;;;;;;20.55;100.00;101943.72;2613000;36;19989;-59
2022/05/26 09:17:59;;;;;;;;;;;;;;;20.31;100.00;101945.50;2613490;36;19946;-59
2022/05/26 09:20:32;;;;;;;;;;;;;;;20.28;100.00;101953.22;2614150;31;20034;-60
2022/05/26 09:23:10;;;;;;;;;;;;;;;20.79;100.00;101958.41;2611652;36;19958;-58
2022/05/26 09:25:45;;;;;;;;;;;;;;;20.36;100.00;101945.00;2611650;36;20030;-60
2022/05/26 09:28:13;;;;;;;;;;;;;;;19.55;100.00;101966.69;2612343;36;19950;-58
2022/05/26 09:30:41;;;;;;;;;;;;;;;19.48;100.00;101959.31;2612696;36;20034;-60
2022/05/26 09:33:19;;;;;;;;;;;;;;;20.13;100.00;101964.84;2612119;31;20026;-59
2022/05/26 09:35:48;;;;;;;;;;;;;;;20.57;100.00;101962.72;2613300;36;20575;-62
2022/05/26 09:38:18;;;;;;;;;;;;;;;21.30;100.00;101961.56;2612429;36;19950;-63
2022/05/26 09:40:49;;;;;;;;;;;;;;;20.76;100.00;101965.09;2601408;36;19958;-61
2022/05/26 09:43:28;;;;;;;;;;;;;;;20.60;100.00;101971.41;2611833;36;20042;-58
2022/05/26 09:46:03;;;;;;;;;;;;;;;20.59;100.00;101961.50;2614515;36;20397;-61
2022/05/26 09:48:33;;;;;;;;;;;;;;;20.53;100.00;101975.03;2613502;36;19969;-58
2022/05/26 09:51:11;;;;;;;;;;;;;;;21.14;100.00;101972.59;2613447;36;19957;-58
2022/05/26 09:53:41;;;;;;;;;;;;;;;21.47;100.00;101981.47;2612658;36;19946;-67
2022/05/26 09:56:13;;;;;;;;;;;;;;;21.57;100.00;101992.25;2611700;36;19950;-61
2022/05/26 09:58:43;;;;;;;;;;;;;;;21.00;100.00;101977.78;2613011;31;19957;-58
2022/05/26 10:01:15;;;;;;;;;;;;;;;20.39;100.00;101990.25;2613317;36;19958;-62
2022/05/26 10:03:52;;;;;;;;;;;;;;;20.52;100.00;101985.09;2612644;36;19962;-66
2022/05/26 10:06:25;;;;;;;;;;;;;;;21.22;100.00;101982.69;2612504;31;20355;-61
2022/05/26 10:08:59;;;;;;;;;;;;;;;20.93;100.00;101992.38;2612502;36;20424;-62
2022/05/26 10:11:36;;;;;;;;;;;;;;;20.85;100.00;101996.00;2612890;36;19986;-60
2022/05/26 10:14:11;;;;;;;;;;;;;;;20.96;100.00;101992.84;2612851;31;19962;-62
2022/05/26 10:16:47;;;;;;;;;;;;;;;21.43;100.00;101985.59;2612314;36;19958;-62
2022/05/26 10:19:50;;;;;;;;;;;;;;;21.21;100.00;101987.28;2612777;36;19954;-63
2022/05/26 10:22:27;;;;;;;;;;;;;;;20.12;100.00;101989.63;2615025;36;20055;-63
2022/05/26 10:25:02;;;;;;;;;;;;;;;21.03;100.00;101979.34;2612302;36;20429;-61
2022/05/26 10:27:53;;;;;;;;;;;;;;;20.95;100.00;101974.75;2612867;36;19958;-63
2022/05/26 10:33:47;;;;;;;;;;;;;;;21.20;100.00;101982.84;2614258;54;19950;-63
2022/05/26 10:36:22;;;;;;;;;;;;;;;21.23;100.00;101992.56;2621120;31;20071;-59
2022/05/26 10:38:56;;;;;;;;;;;;;;;21.33;100.00;101979.50;2612000;36;20680;-61
2022/05/26 10:41:28;;;;;;;;;;;;;;;21.09;100.00;101984.09;2612018;31;20061;-62
2022/05/26 10:44:01;;;;;;;;;;;;;;;20.73;100.00;101975.50;2612828;36;20749;-60
2022/05/26 10:46:45;;;;;;;;;;;;;;;20.80;100.00;101977.38;2659636;36;20031;-61
2022/05/26 10:49:20;;;;;;;;;;;;;;;20.98;100.00;101984.50;2611067;36;19950;-59
2022/05/26 10:52:08;;;;;;;;;;;;;;;21.75;100.00;101985.63;2613243;36;19958;-59
2022/05/26 10:54:44;;;;;;;;;;;;;;;22.42;100.00;101997.72;2612173;36;19954;-59
2022/05/26 10:57:20;;;;;;;;;;;;;;;22.30;100.00;101984.44;2611317;36;19952;-64
2022/05/26 10:59:51;;;;;;;;;;;;;;;21.51;100.00;101980.13;2612260;36;19975;-59
2022/05/26 11:05:06;;;;;;;;;;;;;;;20.71;98.94;101972.09;2615223;36;19969;-61
2022/05/26 11:07:36;;;;;;;;;;;;;;;20.72;100.00;101992.97;2614831;36;20697;-62
2022/05/26 11:12:54;;;;;;;;;;;;;;;21.34;100.00;101994.91;2614212;36;20550;-62
2022/05/26 11:18:08;;;;;;;;;;;;;;;20.76;100.00;101980.63;2614622;36;19981;-63
2022/05/26 11:20:43;;;;;;;;;;;;;;;21.03;100.00;101986.69;2614468;36;20030;-63
2022/05/26 11:23:11;;;;;;;;;;;;;;;20.67;100.00;101973.47;2612508;36;20071;-58
2022/05/26 11:25:46;;;;;;;;;;;;;;;20.24;100.00;101982.78;2612826;36;20030;-62
2022/05/26 11:28:20;;;;;;;;;;;;;;;20.38;100.00;101989.41;2613424;31;20110;-60
2022/05/26 11:36:19;;;;;;;;;;;;;;;20.21;100.00;101979.53;2613934;36;19974;-62
2022/05/26 11:38:49;;;;;;;;;;;;;;;20.18;100.00;101977.16;2613394;31;20045;-58
2022/05/26 11:41:26;;;;;;;;;;;;;;;20.03;100.00;101969.63;2612492;36;19950;-59
2022/05/26 11:44:01;;;;;;;;;;;;;;;20.69;100.00;101969.53;2614473;36;20512;-58
2022/05/26 11:46:45;;;;;;;;;;;;;;;20.71;100.00;101977.56;2612310;31;19985;-59
2022/05/26 11:49:13;;;;;;;;;;;;;;;20.46;100.00;101980.34;2612588;36;20391;-59
2022/05/26 11:51:45;;;;;;;;;;;;;;;20.82;100.00;101969.00;2614917;36;20317;-58
2022/05/26 11:54:33;;;;;;;;;;;;;;;21.07;100.00;101977.06;2614536;31;19985;-59
2022/05/26 11:57:21;;;;;;;;;;;;;;;21.30;100.00;101988.09;2613524;36;19982;-59
2022/05/26 11:59:52;;;;;;;;;;;;;;;21.64;100.00;101982.28;2614396;36;20109;-60
2022/05/26 12:02:38;;;;;;;;;;;;;;;21.40;100.00;101977.75;2614486;36;19950;-59
2022/05/26 12:05:21;;;;;;;;;;;;;;;20.87;100.00;101976.66;2614238;36;19977;-59
2022/05/26 12:07:49;;;;;;;;;;;;;;;20.53;100.00;101975.88;2614551;31;19977;-61
2022/05/26 12:10:21;;;;;;;;;;;;;;;20.83;100.00;101977.03;2614729;36;20001;-59
2022/05/26 12:12:49;;;;;;;;;;;;;;;21.34;100.00;101976.59;2614725;36;20507;-64
2022/05/26 12:15:22;;;;;;;;;;;;;;;21.61;100.00;101979.91;2612798;36;19947;-63
2022/05/26 12:17:55;;;;;;;;;;;;;;;21.78;100.00;101974.28;2610826;36;20474;-58
2022/05/26 12:20:42;;;;;;;;;;;;;;;21.61;100.00;101968.94;2613242;36;19981;-61
2022/05/26 12:23:27;;;;;;;;;;;;;;;20.98;100.00;101968.06;2612665;36;19954;-59
2022/05/26 12:26:10;;;;;;;;;;;;;;;20.73;100.00;101964.56;2614484;36;20053;-58
2022/05/26 12:28:38;;;;;;;;;;;;;;;20.94;100.00;101959.34;2613665;36;20571;-59
2022/05/26 12:31:12;;;;;;;;;;;;;;;20.81;100.00;101967.28;2614144;36;19947;-59
2022/05/26 12:33:47;;;;;;;;;;;;;;;21.04;98.53;101963.75;2613894;36;19947;-62
2022/05/26 12:36:19;;;;;;;;;;;;;;;20.96;94.12;101964.66;2613621;31;20598;-58
2022/05/26 12:38:54;;;;;;;;;;;;;;;21.35;94.98;101956.41;2613848;36;20495;-58
2022/05/26 12:41:26;;;;;;;;;;;;;;;21.09;96.92;101944.91;2614384;36;20038;-63
2022/05/26 12:44:12;;;;;;;;;;;;;;;21.09;98.44;101956.72;2611619;36;19947;-62
2022/05/26 12:46:54;;;;;;;;;;;;;;;20.74;94.33;101966.28;2612919;36;20070;-63
2022/05/26 12:49:41;;;;;;;;;;;;;;;20.94;95.86;101962.09;2613913;31;19970;-58
2022/05/26 12:52:12;;;;;;;;;;;;;;;21.22;97.54;101967.09;2614471;36;20351;-59
2022/05/26 12:54:59;;;;;;;;;;;;;;;21.22;96.38;101964.34;2660517;36;19953;-59
2022/05/26 12:57:39;;;;;;;;;;;;;;;20.80;100.00;101965.56;2670391;36;19950;-58
2022/05/26 13:00:22;;;;;;;;;;;;;;;20.77;95.06;101954.97;2613854;36;19950;-58
2022/05/26 13:05:51;;;;;;;;;;;;;;;21.93;88.58;101944.19;2614396;36;19946;-60
2022/05/26 13:08:21;;;;;;;;;;;;;;;21.37;91.42;101944.41;2613601;36;20448;-59
2022/05/26 13:10:51;;;;;;;;;;;;;;;21.18;96.47;101947.41;2614339;36;19958;-58
2022/05/26 13:13:22;;;;;;;;;;;;;;;21.72;90.15;101953.09;2613997;31;19980;-62
2022/05/26 13:15:50;;;;;;;;;;;;;;;21.37;96.19;101960.84;2614320;36;20456;-60
2022/05/26 13:18:19;;;;;;;;;;;;;;;20.96;93.33;101954.53;2613783;36;20026;-61
2022/05/26 13:20:52;;;;;;;;;;;;;;;20.61;100.00;101951.25;2614328;31;20406;-58
2022/05/26 13:23:30;;;;;;;;;;;;;;;20.60;100.00;101960.47;2614047;36;20065;-59
2022/05/26 13:25:59;;;;;;;;;;;;;;;20.90;100.00;101960.72;2614167;36;19953;-59
2022/05/26 13:28:28;;;;;;;;;;;;;;;20.87;100.00;101973.94;2610425;36;19951;-61
2022/05/26 13:33:42;;;;;;;;;;;;;;;20.77;100.00;101955.84;2613874;36;19946;-59
2022/05/26 13:36:18;;;;;;;;;;;;;;;20.90;100.00;101955.25;2613751;36;20415;-59
2022/05/26 13:38:48;;;;;;;;;;;;;;;21.16;100.00;101949.50;2613542;36;20066;-59
2022/05/26 13:41:19;;;;;;;;;;;;;;;21.40;100.00;101952.28;2613460;31;20383;-59